Time;durP1;ratioP1;P1;durP2;ratioP2;P2;SDS_P1;SDS_P2;PMS_P1;PMS_P2;Temp;Humidity;BMP_temperature;BMP_pressure;BME280_temperature;BME280_humidity;BME280_pressure;Samples;Min_cycle;Max_cycle;Signal;HPM_P1;HPM_P2
2022/09/17 00:07:17;;;;;;;6.20;2.93;;;18.80;99.90;;;;;;6096455;23;20666;-91
2022/09/17 00:09:48;;;;;;;4.63;3.00;;;18.70;99.90;;;;;;6100160;23;20168;-92
2022/09/17 00:12:21;;;;;;;4.70;3.00;;;18.70;99.90;;;;;;6098467;23;20203;-93
2022/09/17 00:14:52;;;;;;;5.97;2.67;;;18.60;99.90;;;;;;6074835;23;20262;-91
2022/09/17 00:17:23;;;;;;;6.50;2.83;;;18.60;99.90;;;;;;6103241;23;20273;-93
2022/09/17 00:19:55;;;;;;;4.00;2.97;;;18.50;99.90;;;;;;6099488;23;20183;-93
2022/09/17 00:22:30;;;;;;;4.07;2.60;;;18.50;99.90;;;;;;6098003;23;20510;-93
2022/09/17 00:25:02;;;;;;;10.60;2.90;;;18.40;99.90;;;;;;6100717;23;20640;-94
2022/09/17 00:27:34;;;;;;;4.00;2.50;;;18.40;99.90;;;;;;6099107;23;20175;-93
2022/09/17 00:30:06;;;;;;;3.47;2.57;;;18.40;99.90;;;;;;6098237;23;20175;-93
2022/09/17 00:32:39;;;;;;;4.23;2.63;;;18.30;99.90;;;;;;6098535;23;20203;-93
2022/09/17 00:35:11;;;;;;;4.47;2.77;;;18.20;99.90;;;;;;6098885;23;20517;-93
2022/09/17 00:37:46;;;;;;;5.87;2.50;;;18.20;99.90;;;;;;6074128;23;20179;-93
2022/09/17 00:40:18;;;;;;;2.80;2.40;;;18.20;99.90;;;;;;6098495;23;20495;-93
2022/09/17 00:42:52;;;;;;;8.43;2.97;;;18.20;99.90;;;;;;6100937;23;20206;-93
2022/09/17 00:45:25;;;;;;;5.80;2.80;;;18.10;99.90;;;;;;6100567;23;20176;-93
2022/09/17 00:48:00;;;;;;;5.03;2.87;;;18.00;99.90;;;;;;6074529;23;20219;-93
2022/09/17 00:50:35;;;;;;;4.57;2.50;;;17.90;99.90;;;;;;6098933;23;20660;-93
2022/09/17 00:53:13;;;;;;;3.63;2.63;;;17.80;99.90;;;;;;6073446;23;20208;-93
2022/09/17 00:55:49;;;;;;;4.73;2.50;;;17.70;99.90;;;;;;6098801;23;20182;-93
2022/09/17 00:58:25;;;;;;;4.37;2.40;;;17.70;99.90;;;;;;6100652;23;20175;-92
2022/09/17 01:00:57;;;;;;;4.37;2.30;;;17.80;99.90;;;;;;6076590;23;20249;-94
2022/09/17 01:03:32;;;;;;;6.07;2.13;;;17.60;99.90;;;;;;6104736;23;20195;-92
2022/09/17 01:06:11;;;;;;;5.50;2.20;;;17.60;99.90;;;;;;6091977;23;20197;-91
2022/09/17 01:08:53;;;;;;;3.00;2.37;;;17.70;99.90;;;;;;6117798;23;20266;-91
2022/09/17 01:11:40;;;;;;;3.83;2.77;;;17.70;99.90;;;;;;6101701;23;20566;-94
2022/09/17 01:14:28;;;;;;;3.20;2.10;;;17.80;99.90;;;;;;6100262;23;20198;-92
2022/09/17 01:17:09;;;;;;;5.27;2.60;;;17.80;99.90;;;;;;6102199;23;20170;-94
2022/09/17 01:20:27;;;;;;;3.03;2.20;;;18.00;99.90;;;;;;6100823;23;20174;-94
2022/09/17 01:23:16;;;;;;;3.00;2.30;;;18.00;99.90;;;;;;6100527;23;20174;-94
2022/09/17 01:25:57;;;;;;;6.10;2.10;;;18.00;99.90;;;;;;6101741;23;20179;-93
2022/09/17 01:28:42;;;;;;;5.23;2.77;;;17.90;99.90;;;;;;6102402;23;20258;-94
2022/09/17 01:31:34;;;;;;;4.40;2.40;;;17.80;99.90;;;;;;6106195;23;20175;-94
2022/09/17 01:34:18;;;;;;;4.63;2.57;;;17.70;99.90;;;;;;6104101;23;20206;-91
2022/09/17 01:42:30;;;;;;;2.60;2.20;;;17.30;99.90;;;;;;6075414;23;20227;-92
2022/09/17 01:47:51;;;;;;;2.57;1.90;;;17.10;99.90;;;;;;6115686;23;20226;-91
2022/09/17 01:50:28;;;;;;;3.37;1.83;;;17.10;99.90;;;;;;6121799;23;20298;-96
2022/09/17 01:53:04;;;;;;;4.10;1.77;;;17.00;99.90;;;;;;6121236;23;20178;-96
2022/09/17 01:58:21;;;;;;;4.53;1.97;;;16.70;99.90;;;;;;6059539;23;20380;-96
2022/09/17 02:00:57;;;;;;;2.07;1.87;;;16.70;99.90;;;;;;6121828;23;20174;-96
2022/09/17 02:03:37;;;;;;;3.63;1.70;;;16.60;99.90;;;;;;6121495;23;20170;-96
2022/09/17 02:06:13;;;;;;;4.00;1.63;;;16.50;99.90;;;;;;6097712;23;20234;-96
2022/09/17 02:08:50;;;;;;;3.33;2.10;;;16.30;99.90;;;;;;6096947;23;20192;-96
2022/09/17 02:11:25;;;;;;;4.07;1.80;;;16.20;99.90;;;;;;6120300;23;20171;-96
2022/09/17 02:14:00;;;;;;;3.40;1.90;;;16.10;99.90;;;;;;6115064;23;20274;-96
2022/09/17 02:16:34;;;;;;;5.00;1.87;;;16.00;99.90;;;;;;6124906;23;20214;-96
2022/09/17 02:19:14;;;;;;;3.50;1.80;;;15.90;99.90;;;;;;6148658;23;20158;-96
2022/09/17 02:21:54;;;;;;;3.07;2.00;;;15.80;99.90;;;;;;6125183;23;20218;-96
2022/09/17 02:24:27;;;;;;;4.37;2.07;;;15.80;99.90;;;;;;6137936;23;20253;-96
2022/09/17 02:27:05;;;;;;;4.73;1.73;;;15.70;99.90;;;;;;6139378;23;20163;-96
2022/09/17 02:29:43;;;;;;;5.27;2.00;;;15.70;99.90;;;;;;6134146;23;20178;-96
2022/09/17 02:32:15;;;;;;;2.23;1.70;;;15.70;99.90;;;;;;6136812;23;20185;-96
2022/09/17 02:34:49;;;;;;;2.40;1.73;;;15.70;99.90;;;;;;6138972;23;20273;-96
2022/09/17 02:37:21;;;;;;;3.43;1.87;;;15.70;99.90;;;;;;6150028;23;20182;-96
2022/09/17 02:39:52;;;;;;;5.27;1.80;;;15.70;99.90;;;;;;6151128;23;20186;-96
2022/09/17 02:42:37;;;;;;;5.70;2.03;;;15.70;99.90;;;;;;6149229;23;20166;-96
2022/09/17 02:45:19;;;;;;;5.50;1.63;;;15.70;99.90;;;;;;6129589;23;20226;-96
2022/09/17 02:48:18;;;;;;;2.63;1.80;;;15.70;99.90;;;;;;6151366;23;20198;-96
2022/09/17 02:51:14;;;;;;;2.47;1.90;;;15.70;99.90;;;;;;6151842;23;20183;-96
2022/09/17 03:07:14;;;;;;;2.63;1.67;;;15.60;99.90;;;;;;6110299;23;20291;-96
2022/09/17 03:09:49;;;;;;;5.93;2.37;;;15.60;99.90;;;;;;6118715;23;20194;-96
2022/09/17 03:12:21;;;;;;;3.90;2.03;;;15.60;99.90;;;;;;6090526;23;20286;-96
2022/09/17 03:14:53;;;;;;;3.20;1.50;;;15.60;99.90;;;;;;6120704;23;20190;-96
2022/09/17 03:17:27;;;;;;;2.53;1.80;;;15.60;99.90;;;;;;6120466;23;20179;-96
2022/09/17 03:19:59;;;;;;;2.17;1.77;;;15.60;99.90;;;;;;6092938;23;20174;-96
2022/09/17 03:22:33;;;;;;;2.13;1.57;;;15.60;99.90;;;;;;6118437;23;20175;-96
2022/09/17 03:25:06;;;;;;;1.33;1.20;;;15.60;99.90;;;;;;6105431;23;20253;-96
2022/09/17 03:27:38;;;;;;;6.43;1.40;;;15.60;99.90;;;;;;6090574;23;20227;-96
2022/09/17 03:30:10;;;;;;;2.60;1.50;;;15.60;99.90;;;;;;6115485;23;20186;-96
2022/09/17 03:32:47;;;;;;;2.30;1.33;;;15.60;99.90;;;;;;6087752;23;20186;-96
2022/09/17 03:35:18;;;;;;;3.67;1.50;;;15.60;99.90;;;;;;6105696;23;20230;-96
2022/09/17 03:37:53;;;;;;;2.57;1.37;;;15.60;99.90;;;;;;6103847;23;20194;-96
2022/09/17 03:43:02;;;;;;;3.90;1.90;;;15.70;99.90;;;;;;6061482;23;20202;-96
2022/09/17 03:45:38;;;;;;;3.43;1.50;;;15.60;99.90;;;;;;6040506;23;20171;-97
2022/09/17 03:48:15;;;;;;;4.37;1.60;;;15.60;99.90;;;;;;6065528;23;20164;-96
2022/09/17 03:58:51;;;;;;;2.07;1.40;;;15.70;99.90;;;;;;6119383;23;20233;-96
2022/09/17 04:01:27;;;;;;;3.70;1.40;;;15.70;99.90;;;;;;6122679;23;20175;-96
2022/09/17 04:04:01;;;;;;;4.70;1.83;;;15.60;99.90;;;;;;6121403;23;20214;-96
2022/09/17 04:06:34;;;;;;;3.63;1.50;;;15.60;99.90;;;;;;6122183;23;20200;-96
2022/09/17 04:09:09;;;;;;;4.30;1.40;;;15.60;99.90;;;;;;6123570;23;20186;-96
2022/09/17 04:11:45;;;;;;;7.53;1.87;;;15.60;99.90;;;;;;6117019;23;20250;-96
2022/09/17 04:14:27;;;;;;;3.37;1.43;;;15.50;99.90;;;;;;6095911;23;20230;-96
2022/09/17 04:17:02;;;;;;;7.13;1.40;;;15.60;99.90;;;;;;6112411;23;20179;-96
2022/09/17 04:19:35;;;;;;;2.40;1.30;;;15.50;99.90;;;;;;6111336;23;20175;-96
2022/09/17 04:22:09;;;;;;;2.00;1.50;;;15.50;99.90;;;;;;6089975;23;20178;-96
2022/09/17 04:24:48;;;;;;;2.87;1.10;;;15.50;99.90;;;;;;6113709;23;20206;-96
2022/09/17 04:27:20;;;;;;;2.07;0.90;;;15.50;99.90;;;;;;6109925;23;20167;-96
2022/09/17 04:29:56;;;;;;;1.87;1.03;;;15.50;99.90;;;;;;6112494;23;20183;-96
2022/09/17 04:32:29;;;;;;;5.53;1.20;;;15.50;99.90;;;;;;6088856;23;20194;-96
2022/09/17 04:35:03;;;;;;;3.03;1.17;;;15.50;99.90;;;;;;6086510;23;20203;-96
2022/09/17 04:37:37;;;;;;;2.10;0.90;;;15.40;99.90;;;;;;6085843;23;20249;-96
2022/09/17 04:40:10;;;;;;;2.03;0.90;;;15.40;99.90;;;;;;6104865;23;20183;-95
2022/09/17 04:42:43;;;;;;;4.80;0.77;;;15.40;99.90;;;;;;6082806;23;20175;-96
2022/09/17 04:45:23;;;;;;;3.33;1.00;;;15.30;99.90;;;;;;6108685;23;20223;-96
2022/09/17 04:47:55;;;;;;;4.27;1.07;;;15.20;99.90;;;;;;6120260;23;20210;-96
2022/09/17 04:50:27;;;;;;;1.37;0.70;;;15.30;99.90;;;;;;6117726;23;20231;-96
2022/09/17 04:53:03;;;;;;;2.77;1.13;;;15.30;99.90;;;;;;6093452;23;20243;-96
2022/09/17 04:55:37;;;;;;;2.53;0.80;;;15.20;99.90;;;;;;6094976;23;20230;-96
2022/09/17 04:58:13;;;;;;;2.47;1.00;;;15.20;99.90;;;;;;6065985;23;20186;-96
2022/09/17 05:00:49;;;;;;;4.13;0.97;;;15.20;99.90;;;;;;6114996;23;20266;-96
2022/09/17 05:03:21;;;;;;;5.60;1.03;;;15.30;99.90;;;;;;6115732;23;20564;-96
2022/09/17 05:05:54;;;;;;;4.73;1.10;;;15.20;99.90;;;;;;6072445;23;20229;-96
2022/09/17 05:08:26;;;;;;;3.43;0.90;;;15.20;99.90;;;;;;6118646;23;20213;-96
2022/09/17 05:16:25;;;;;;;1.33;0.83;;;15.00;99.90;;;;;;6080389;23;20270;-96
2022/09/17 05:18:57;;;;;;;5.03;1.07;;;14.90;99.90;;;;;;6109850;23;20251;-96
2022/09/17 05:21:30;;;;;;;2.00;0.90;;;14.90;99.90;;;;;;6112265;23;20604;-96
2022/09/17 05:24:03;;;;;;;3.60;0.93;;;14.80;99.90;;;;;;6084401;23;20246;-96
2022/09/17 05:26:34;;;;;;;0.93;0.70;;;14.90;99.90;;;;;;6104374;23;20223;-96
2022/09/17 05:29:07;;;;;;;3.00;0.90;;;14.80;99.90;;;;;;6104359;23;20205;-96
2022/09/17 05:31:45;;;;;;;3.70;1.00;;;14.80;99.90;;;;;;6105768;23;20182;-96
2022/09/17 05:34:20;;;;;;;2.50;0.70;;;14.80;99.90;;;;;;6106619;23;20257;-96
2022/09/17 05:36:51;;;;;;;2.93;0.90;;;14.70;99.90;;;;;;6105769;23;20198;-95
2022/09/17 05:39:24;;;;;;;3.60;1.20;;;14.70;99.90;;;;;;6105486;23;20206;-96
2022/09/17 05:41:56;;;;;;;1.63;0.70;;;14.70;99.90;;;;;;6112546;23;20258;-96
2022/09/17 05:44:28;;;;;;;2.60;1.00;;;14.60;99.90;;;;;;6097367;23;20178;-96
2022/09/17 05:47:05;;;;;;;5.77;1.30;;;14.60;99.90;;;;;;6110983;23;20210;-96
2022/09/17 05:49:38;;;;;;;2.43;0.87;;;14.60;99.90;;;;;;6083729;23;20179;-96
2022/09/17 05:52:13;;;;;;;3.53;1.10;;;14.60;99.90;;;;;;6111975;23;20222;-96
2022/09/17 05:54:46;;;;;;;3.50;0.80;;;14.50;99.90;;;;;;6114590;23;20205;-95
2022/09/17 05:57:19;;;;;;;4.17;0.90;;;14.50;99.90;;;;;;6115268;23;20187;-96
2022/09/17 05:59:50;;;;;;;5.53;1.23;;;14.50;99.90;;;;;;6121023;23;20219;-97
2022/09/17 06:02:30;;;;;;;2.50;0.73;;;14.40;99.90;;;;;;6122270;23;20178;-96
2022/09/17 06:05:03;;;;;;;1.93;0.90;;;14.40;99.90;;;;;;6123409;23;20182;-96
2022/09/17 06:13:02;;;;;;;2.73;1.10;;;14.30;99.90;;;;;;6089461;23;20221;-96
2022/09/17 06:15:38;;;;;;;4.27;1.30;;;14.20;99.90;;;;;;6119308;23;20245;-96
2022/09/17 06:21:02;;;;;;;4.30;0.80;;;14.20;99.90;;;;;;6107333;23;20277;-96
2022/09/17 06:23:36;;;;;;;1.90;0.80;;;14.20;99.90;;;;;;6107278;23;20194;-96
2022/09/17 06:26:08;;;;;;;2.27;0.70;;;14.10;99.90;;;;;;6104680;23;20174;-95
2022/09/17 06:28:41;;;;;;;2.27;0.93;;;14.10;99.90;;;;;;6104750;23;20558;-95
2022/09/17 06:31:14;;;;;;;5.20;1.03;;;14.00;99.90;;;;;;6104106;23;20187;-96
2022/09/17 06:33:47;;;;;;;3.73;0.93;;;14.00;99.90;;;;;;6103789;23;20187;-96
2022/09/17 06:36:22;;;;;;;2.37;0.70;;;13.90;99.90;;;;;;6103463;23;20213;-96
2022/09/17 06:38:57;;;;;;;7.40;1.10;;;14.00;99.90;;;;;;6081101;23;20163;-96
2022/09/17 06:41:29;;;;;;;2.63;1.00;;;13.90;99.90;;;;;;6107695;23;20179;-96
2022/09/17 06:44:01;;;;;;;3.00;0.90;;;13.90;99.90;;;;;;6105292;23;20179;-96
2022/09/17 06:46:32;;;;;;;1.80;0.70;;;13.80;99.90;;;;;;6105231;23;20190;-96
2022/09/17 06:49:05;;;;;;;2.37;1.03;;;13.80;99.90;;;;;;6107087;23;20183;-96
2022/09/17 06:51:40;;;;;;;2.10;0.73;;;13.70;99.90;;;;;;6081508;23;20167;-96
2022/09/17 06:54:14;;;;;;;7.63;1.10;;;13.70;99.90;;;;;;6107482;23;20271;-96
2022/09/17 07:26:20;;;;;;;2.37;0.80;;;13.70;99.90;;;;;;6097036;23;20284;-96
2022/09/17 07:28:53;;;;;;;2.93;0.80;;;13.70;99.90;;;;;;6112248;23;20238;-96
2022/09/17 07:31:25;;;;;;;5.70;1.17;;;13.70;99.90;;;;;;6117826;23;20257;-96
2022/09/17 07:33:58;;;;;;;2.77;0.80;;;13.70;99.90;;;;;;6092605;23;20173;-96
2022/09/17 07:36:35;;;;;;;2.47;0.90;;;13.60;99.90;;;;;;6092770;23;20155;-96
2022/09/17 07:39:07;;;;;;;1.57;0.90;;;13.60;99.90;;;;;;6092612;23;20264;-96
2022/09/17 07:41:41;;;;;;;3.03;1.13;;;13.60;99.90;;;;;;6115574;23;20195;-95
2022/09/17 07:44:16;;;;;;;3.73;0.90;;;13.60;99.90;;;;;;6116654;23;20197;-96
2022/09/17 07:46:49;;;;;;;2.50;0.60;;;13.50;99.90;;;;;;6116466;23;20500;-96
2022/09/17 07:49:21;;;;;;;1.87;0.73;;;13.50;99.90;;;;;;6092402;23;20179;-96
2022/09/17 07:51:53;;;;;;;3.53;1.07;;;13.50;99.90;;;;;;6116316;23;20191;-96
2022/09/17 07:54:26;;;;;;;1.63;0.70;;;13.50;99.90;;;;;;6115758;23;20217;-95
2022/09/17 07:56:58;;;;;;;2.53;1.10;;;13.50;99.90;;;;;;6089277;23;20201;-96
2022/09/17 07:59:32;;;;;;;2.10;1.20;;;13.50;99.90;;;;;;6113012;23;20253;-96
2022/09/17 08:02:11;;;;;;;2.33;0.80;;;13.60;99.90;;;;;;6124403;23;20209;-96
2022/09/17 08:04:47;;;;;;;5.73;0.93;;;13.60;99.90;;;;;;6128015;23;20174;-96
2022/09/17 08:07:25;;;;;;;3.33;0.97;;;13.60;99.90;;;;;;6125201;23;20206;-96
2022/09/17 08:10:00;;;;;;;2.13;0.93;;;13.60;99.90;;;;;;6127049;23;20200;-96
2022/09/17 08:12:33;;;;;;;4.03;0.90;;;13.70;99.90;;;;;;6126728;23;20195;-96
2022/09/17 08:15:16;;;;;;;3.43;1.17;;;13.70;99.90;;;;;;6122224;23;20211;-96
2022/09/17 08:17:51;;;;;;;1.67;0.87;;;13.70;99.90;;;;;;6123246;23;20190;-96
2022/09/17 08:20:25;;;;;;;1.73;0.70;;;13.70;99.90;;;;;;6123237;23;20182;-96
2022/09/17 08:23:06;;;;;;;2.97;0.83;;;13.70;99.90;;;;;;6121740;23;20219;-95
2022/09/17 08:25:40;;;;;;;1.80;0.73;;;13.80;99.90;;;;;;6072253;23;20198;-95
2022/09/17 08:28:14;;;;;;;4.13;0.97;;;13.90;99.90;;;;;;6095859;23;20179;-96
2022/09/17 08:30:51;;;;;;;2.60;0.90;;;13.80;99.90;;;;;;6094230;23;20190;-96
2022/09/17 08:33:22;;;;;;;2.73;0.80;;;13.80;99.90;;;;;;6092856;23;20196;-96
2022/09/17 08:35:58;;;;;;;1.90;0.63;;;13.80;99.90;;;;;;6093274;23;20224;-96
2022/09/17 08:38:30;;;;;;;3.90;0.80;;;13.80;99.90;;;;;;6093420;23;20187;-96
2022/09/17 08:41:22;;;;;;;1.77;0.80;;;13.80;99.90;;;;;;6092605;23;20255;-96
2022/09/17 08:44:14;;;;;;;2.67;0.80;;;13.90;99.90;;;;;;6080998;23;20179;-96
2022/09/17 08:46:51;;;;;;;3.10;0.80;;;13.90;99.90;;;;;;6075460;23;20179;-96
2022/09/17 08:49:33;;;;;;;3.43;0.90;;;13.80;99.90;;;;;;6077442;23;20541;-96
2022/09/17 08:52:36;;;;;;;1.17;0.60;;;13.90;99.90;;;;;;6075815;23;20513;-96
2022/09/17 08:55:18;;;;;;;2.63;0.80;;;13.90;99.90;;;;;;6080350;23;20179;-96
2022/09/17 08:58:03;;;;;;;3.10;0.70;;;13.80;99.90;;;;;;6076345;23;20231;-96
2022/09/17 09:00:41;;;;;;;3.63;1.10;;;13.80;99.90;;;;;;6079037;23;20264;-96
2022/09/17 09:03:36;;;;;;;4.37;0.70;;;13.80;99.90;;;;;;6084433;23;20183;-96
2022/09/17 09:06:07;;;;;;;3.73;0.90;;;13.80;99.90;;;;;;6094509;23;20168;-96
2022/09/17 09:11:26;;;;;;;2.93;1.00;;;13.70;99.90;;;;;;6111065;23;20194;-96
2022/09/17 09:14:06;;;;;;;2.43;0.70;;;13.70;99.90;;;;;;6115889;23;20218;-96
2022/09/17 09:16:44;;;;;;;2.43;0.60;;;13.70;99.90;;;;;;6120519;23;20186;-96
2022/09/17 09:19:25;;;;;;;1.77;0.70;;;13.70;99.90;;;;;;6097333;23;20202;-96
2022/09/17 09:22:13;;;;;;;4.50;0.70;;;13.60;99.90;;;;;;6118122;23;20230;-96
2022/09/17 09:24:57;;;;;;;1.80;0.63;;;13.50;99.90;;;;;;6119209;23;20271;-96
2022/09/17 09:27:44;;;;;;;3.33;0.77;;;13.50;99.90;;;;;;6115634;23;20171;-96
2022/09/17 09:30:22;;;;;;;3.13;0.63;;;13.50;99.90;;;;;;6119002;23;20175;-96
2022/09/17 09:33:02;;;;;;;3.97;0.90;;;13.50;99.90;;;;;;6114376;23;20266;-96
2022/09/17 09:35:40;;;;;;;1.63;0.70;;;13.40;99.90;;;;;;6112333;23;20243;-96
2022/09/17 09:38:23;;;;;;;3.60;0.87;;;13.40;99.90;;;;;;6111998;23;20189;-96
2022/09/17 09:40:59;;;;;;;4.27;0.93;;;13.40;99.90;;;;;;6112989;23;20175;-95
2022/09/17 09:43:40;;;;;;;1.97;0.77;;;13.30;99.90;;;;;;6113113;23;20206;-95
2022/09/17 09:46:53;;;;;;;2.13;0.70;;;13.30;99.90;;;;;;6094014;23;20210;-96
2022/09/17 09:49:33;;;;;;;2.53;0.93;;;13.30;99.90;;;;;;6090852;23;20341;-96
2022/09/17 09:52:24;;;;;;;2.40;0.80;;;13.30;99.90;;;;;;6115004;23;20175;-96
2022/09/17 09:55:06;;;;;;;2.50;0.80;;;13.20;99.90;;;;;;6108893;23;20228;-96
2022/09/17 09:57:44;;;;;;;1.23;0.67;;;13.20;99.90;;;;;;6082287;23;20179;-96
2022/09/17 10:00:28;;;;;;;4.20;0.73;;;13.10;99.90;;;;;;6104150;23;20483;-96
2022/09/17 10:03:05;;;;;;;2.27;0.80;;;13.10;99.90;;;;;;6100507;23;20206;-96
2022/09/17 10:05:37;;;;;;;3.33;0.90;;;13.10;99.90;;;;;;6102912;23;20210;-95
2022/09/17 10:08:18;;;;;;;3.00;1.00;;;13.10;99.90;;;;;;6106130;23;20198;-96
2022/09/17 10:11:03;;;;;;;3.30;0.90;;;13.10;99.90;;;;;;6107347;23;20202;-96
2022/09/17 10:13:46;;;;;;;3.90;0.80;;;13.00;99.90;;;;;;6114805;23;20183;-96
2022/09/17 10:16:23;;;;;;;3.07;0.90;;;13.00;99.90;;;;;;6096994;23;20186;-96
2022/09/17 10:19:18;;;;;;;1.87;0.67;;;12.90;99.90;;;;;;6110845;23;20175;-96
2022/09/17 10:21:50;;;;;;;1.50;0.70;;;12.90;99.90;;;;;;6110471;23;20306;-96
2022/09/17 10:24:36;;;;;;;2.93;0.63;;;13.00;99.90;;;;;;6090799;23;20171;-96
2022/09/17 10:27:17;;;;;;;2.93;0.83;;;12.90;99.90;;;;;;6117323;23;20179;-96
2022/09/17 10:29:52;;;;;;;1.50;0.73;;;12.90;99.90;;;;;;6118100;23;20166;-96
2022/09/17 10:32:25;;;;;;;2.77;0.97;;;12.80;99.90;;;;;;6112738;23;20210;-96
2022/09/17 10:35:03;;;;;;;1.47;0.83;;;12.80;99.90;;;;;;6108357;23;20226;-96
2022/09/17 10:37:42;;;;;;;2.57;0.90;;;12.80;99.90;;;;;;6116693;23;20157;-96
2022/09/17 10:40:30;;;;;;;3.30;0.77;;;12.70;99.90;;;;;;6118052;23;20175;-96
2022/09/17 10:43:24;;;;;;;1.33;0.80;;;12.70;99.90;;;;;;6102601;23;20234;-96
2022/09/17 10:46:01;;;;;;;4.60;1.03;;;12.70;99.90;;;;;;6103370;23;20258;-96
2022/09/17 10:48:35;;;;;;;1.57;0.90;;;12.70;99.90;;;;;;6102363;23;20653;-96
2022/09/17 10:51:09;;;;;;;3.27;0.70;;;12.60;99.90;;;;;;6108623;23;20598;-95
2022/09/17 10:54:11;;;;;;;3.47;1.10;;;12.60;99.90;;;;;;6080005;23;20186;-95
2022/09/17 10:56:52;;;;;;;2.20;0.67;;;12.50;99.90;;;;;;6104824;23;20186;-96
2022/09/17 10:59:51;;;;;;;2.13;0.80;;;12.50;99.90;;;;;;6102433;23;20178;-96
2022/09/17 11:03:10;;;;;;;2.07;0.83;;;12.40;99.90;;;;;;6100716;23;20254;-96
2022/09/17 11:06:12;;;;;;;4.23;1.00;;;12.40;99.90;;;;;;5990356;23;20173;-96
2022/09/17 11:08:52;;;;;;;3.43;0.90;;;12.50;99.90;;;;;;6105517;23;20250;-94
2022/09/17 11:11:39;;;;;;;4.07;1.00;;;12.40;99.90;;;;;;6108930;23;20186;-96
2022/09/17 11:14:36;;;;;;;2.07;0.80;;;12.50;99.90;;;;;;6107283;23;20258;-96
2022/09/17 11:17:20;;;;;;;2.23;0.97;;;12.40;99.90;;;;;;6091265;23;20181;-96
2022/09/17 11:20:11;;;;;;;5.27;1.10;;;12.40;99.90;;;;;;6094437;23;20209;-96
2022/09/17 11:22:56;;;;;;;2.67;1.00;;;12.40;99.90;;;;;;6108007;23;20217;-96
2022/09/17 11:25:41;;;;;;;2.70;1.20;;;12.40;99.90;;;;;;6110989;23;20186;-96
2022/09/17 11:28:35;;;;;;;2.80;1.10;;;12.40;99.90;;;;;;6114736;23;20174;-96
2022/09/17 11:31:23;;;;;;;3.37;1.07;;;12.40;99.90;;;;;;6093434;23;20186;-96
2022/09/17 11:34:13;;;;;;;3.87;1.20;;;12.30;99.90;;;;;;6118685;23;20231;-96
2022/09/17 11:36:52;;;;;;;3.53;1.43;;;12.30;99.90;;;;;;6119184;23;20195;-96
2022/09/17 11:39:38;;;;;;;6.33;1.93;;;12.30;99.90;;;;;;6115504;23;20255;-96
2022/09/17 11:42:17;;;;;;;2.53;1.20;;;12.30;99.90;;;;;;6086751;23;20213;-96
2022/09/17 11:44:54;;;;;;;2.10;1.10;;;12.20;99.90;;;;;;6116718;23;20182;-96
2022/09/17 11:47:37;;;;;;;3.93;1.03;;;12.20;99.90;;;;;;6077725;23;20174;-96
2022/09/17 11:50:21;;;;;;;1.80;0.87;;;12.20;99.90;;;;;;6106592;23;20247;-96
2022/09/17 11:53:04;;;;;;;1.20;1.10;;;12.20;99.90;;;;;;6106657;23;20178;-96
2022/09/17 11:55:43;;;;;;;1.47;0.90;;;12.10;99.90;;;;;;6082852;23;20210;-96
2022/09/17 11:58:18;;;;;;;3.47;1.40;;;12.10;99.90;;;;;;6105963;23;20188;-96
2022/09/17 12:00:56;;;;;;;2.00;1.03;;;12.10;99.90;;;;;;6080356;23;20190;-96
2022/09/17 12:03:36;;;;;;;4.33;1.17;;;12.00;99.90;;;;;;6106568;23;20195;-96
2022/09/17 12:06:15;;;;;;;1.87;1.40;;;12.00;99.90;;;;;;6078884;23;20329;-96
2022/09/17 12:08:54;;;;;;;4.17;1.23;;;11.90;99.90;;;;;;6081321;23;20185;-96
2022/09/17 12:11:33;;;;;;;1.97;1.27;;;11.90;99.90;;;;;;6109671;23;20189;-96
2022/09/17 12:14:14;;;;;;;1.53;1.00;;;11.90;99.90;;;;;;6107780;23;20242;-96
2022/09/17 12:16:49;;;;;;;2.33;1.10;;;11.80;99.90;;;;;;6112545;23;20179;-96
2022/09/17 12:19:28;;;;;;;1.33;0.97;;;11.80;99.90;;;;;;6112982;23;20559;-94
2022/09/17 12:22:05;;;;;;;5.83;1.60;;;11.80;99.90;;;;;;6095005;23;20229;-95
2022/09/17 12:24:41;;;;;;;1.87;1.03;;;11.70;99.90;;;;;;6121703;23;20171;-96
2022/09/17 12:27:23;;;;;;;2.23;1.10;;;11.70;99.90;;;;;;6114825;23;20242;-96
2022/09/17 12:30:07;;;;;;;4.20;1.40;;;11.70;99.90;;;;;;6121097;23;20171;-96
2022/09/17 12:33:17;;;;;;;4.27;1.57;;;11.80;99.90;;;;;;6112197;23;20224;-96
2022/09/17 12:36:09;;;;;;;2.20;0.97;;;11.70;99.90;;;;;;6101788;23;20191;-96
2022/09/17 12:39:05;;;;;;;4.07;1.37;;;11.70;99.90;;;;;;6120837;23;20171;-96
2022/09/17 12:41:50;;;;;;;4.23;1.37;;;11.70;99.90;;;;;;6115952;23;20218;-96
2022/09/17 12:44:56;;;;;;;2.50;1.30;;;11.60;99.90;;;;;;6122193;23;20230;-96
2022/09/17 12:48:02;;;;;;;3.33;1.43;;;11.50;99.90;;;;;;6122903;23;20190;-96
2022/09/17 12:50:47;;;;;;;3.77;1.20;;;11.50;99.90;;;;;;6114633;23;20306;-96
2022/09/17 12:53:30;;;;;;;3.23;1.20;;;11.50;99.90;;;;;;6103501;23;20257;-96
2022/09/17 12:56:27;;;;;;;3.43;1.37;;;11.40;99.90;;;;;;6085176;23;20223;-95
2022/09/17 12:59:09;;;;;;;4.03;1.33;;;11.40;99.90;;;;;;6104411;23;20190;-95
2022/09/17 13:01:48;;;;;;;3.60;1.10;;;11.40;99.90;;;;;;6104452;23;20562;-95
2022/09/17 13:04:40;;;;;;;4.37;1.10;;;11.40;99.90;;;;;;6115571;23;20269;-95
2022/09/17 13:08:00;;;;;;;2.67;1.13;;;11.30;99.90;;;;;;6114960;23;20236;-96
2022/09/17 13:11:01;;;;;;;2.80;1.40;;;11.30;99.90;;;;;;6105259;23;20196;-96
2022/09/17 13:13:38;;;;;;;1.83;1.30;;;11.30;99.90;;;;;;6108807;23;20179;-96
2022/09/17 13:16:16;;;;;;;5.13;1.30;;;11.20;99.90;;;;;;6111844;23;20179;-96
2022/09/17 13:18:58;;;;;;;4.77;1.23;;;11.20;99.90;;;;;;6096206;23;20175;-96
2022/09/17 13:21:53;;;;;;;3.33;1.20;;;11.20;99.90;;;;;;6120596;23;20167;-96
2022/09/17 13:24:29;;;;;;;1.40;1.20;;;11.10;99.90;;;;;;6120985;23;20250;-96
2022/09/17 13:32:57;;;;;;;3.73;1.30;;;11.10;99.90;;;;;;6124447;23;20246;-96
2022/09/17 13:43:47;;;;;;;2.83;1.30;;;11.00;99.90;;;;;;6111694;23;20243;-96
2022/09/17 13:46:26;;;;;;;2.23;1.30;;;10.90;99.90;;;;;;6117714;23;20210;-95
2022/09/17 13:49:04;;;;;;;2.43;1.07;;;10.90;99.90;;;;;;6115738;23;20186;-96
2022/09/17 13:51:55;;;;;;;3.50;1.30;;;10.90;99.90;;;;;;6092550;23;20191;-96
2022/09/17 13:54:47;;;;;;;2.90;1.23;;;10.90;99.90;;;;;;6120424;23;20171;-96
2022/09/17 13:57:19;;;;;;;3.83;1.40;;;10.90;99.90;;;;;;6110424;23;20266;-96
2022/09/17 13:59:58;;;;;;;2.17;1.20;;;10.90;99.90;;;;;;6096568;23;20187;-96
2022/09/17 14:02:38;;;;;;;2.70;1.20;;;10.90;99.90;;;;;;6121092;23;20218;-95
2022/09/17 14:05:35;;;;;;;3.53;1.33;;;10.90;99.90;;;;;;6122836;23;20183;-96
2022/09/17 14:08:29;;;;;;;2.80;1.10;;;10.90;99.90;;;;;;6123436;23;20168;-96
2022/09/17 14:11:05;;;;;;;3.13;1.30;;;10.90;99.90;;;;;;6122515;23;20226;-96
2022/09/17 14:13:47;;;;;;;1.60;1.13;;;10.90;99.90;;;;;;6120954;23;20231;-95
2022/09/17 14:16:39;;;;;;;2.60;1.40;;;10.90;99.90;;;;;;6106887;23;20185;-96
2022/09/17 14:19:37;;;;;;;2.20;1.37;;;11.00;99.90;;;;;;6105000;23;20686;-96
2022/09/17 14:22:16;;;;;;;2.60;1.30;;;11.00;99.90;;;;;;6106207;23;20179;-96
2022/09/17 14:24:51;;;;;;;2.63;1.13;;;11.00;99.90;;;;;;6108750;23;20209;-96
2022/09/17 14:27:34;;;;;;;3.30;1.53;;;11.10;99.90;;;;;;6121402;23;20230;-96
2022/09/17 14:35:35;;;;;;;4.77;1.60;;;11.30;99.90;;;;;;6123542;23;20189;-96
2022/09/17 14:38:16;;;;;;;3.77;1.80;;;11.30;99.90;;;;;;6122440;23;20190;-94
2022/09/17 14:41:01;;;;;;;2.70;1.70;;;11.30;99.90;;;;;;6121530;23;20167;-96
2022/09/17 14:43:45;;;;;;;2.27;1.27;;;11.30;99.90;;;;;;6122066;23;20225;-96
2022/09/17 14:46:25;;;;;;;3.93;1.50;;;11.20;99.90;;;;;;6099047;23;20259;-96
2022/09/17 14:49:17;;;;;;;4.30;1.50;;;11.30;99.90;;;;;;6121603;23;20179;-95
2022/09/17 14:51:55;;;;;;;3.03;1.20;;;11.40;99.90;;;;;;6121427;23;20194;-96
2022/09/17 14:54:32;;;;;;;2.50;1.40;;;11.50;99.90;;;;;;6113873;23;20285;-96
2022/09/17 14:57:22;;;;;;;6.30;1.53;;;11.60;99.90;;;;;;6122972;23;20162;-96
2022/09/17 14:59:57;;;;;;;3.97;1.40;;;11.70;99.90;;;;;;6122882;23;20269;-96
2022/09/17 15:02:46;;;;;;;2.50;1.30;;;11.80;99.90;;;;;;6120288;23;20195;-96
2022/09/17 15:05:21;;;;;;;2.60;1.20;;;11.90;99.90;;;;;;6122786;23;20239;-96
2022/09/17 15:08:09;;;;;;;1.90;1.30;;;12.00;99.90;;;;;;6121587;23;20178;-96
2022/09/17 15:10:48;;;;;;;1.97;1.37;;;12.10;99.90;;;;;;6122625;23;20170;-96
2022/09/17 15:13:25;;;;;;;3.87;1.30;;;12.10;99.90;;;;;;6122067;23;20187;-96
2022/09/17 15:16:00;;;;;;;1.90;1.20;;;12.10;99.90;;;;;;6120045;23;20213;-96
2022/09/17 15:18:40;;;;;;;3.17;1.57;;;12.30;99.90;;;;;;6114730;23;20234;-96
2022/09/17 15:21:27;;;;;;;3.23;1.17;;;12.30;99.90;;;;;;6116681;23;20179;-96
2022/09/17 15:24:09;;;;;;;3.27;1.60;;;12.50;99.90;;;;;;6111560;23;20191;-96
2022/09/17 15:26:44;;;;;;;5.03;1.73;;;12.60;99.90;;;;;;6112702;23;20195;-96
2022/09/17 15:29:24;;;;;;;2.67;1.17;;;12.60;99.90;;;;;;6109948;23;20195;-96
2022/09/17 15:31:56;;;;;;;2.07;1.47;;;12.70;99.90;;;;;;6113231;23;20171;-96
2022/09/17 15:53:39;;;;;;;2.60;1.10;;;13.40;99.90;;;;;;6116046;23;20226;-96
2022/09/17 15:56:23;;;;;;;2.00;1.10;;;13.40;99.90;;;;;;6120627;23;20182;-96